Time;durP1;ratioP1;P1;durP2;ratioP2;P2;SDS_P1;SDS_P2;PMS_P1;PMS_P2;Temp;Humidity;BMP_temperature;BMP_pressure;BME280_temperature;BME280_humidity;BME280_pressure;Samples;Min_cycle;Max_cycle;Signal;HPM_P1;HPM_P2
2022/07/27 00:01:58;;;;;;;14.75;9.95;;;;;;;;;;6290646;28;20060;-60
2022/07/27 00:04:59;;;;;;;18.13;10.95;;;;;;;;;;6292150;28;20163;-60
2022/07/27 00:07:59;;;;;;;19.90;11.85;;;;;;;;;;6290246;28;20736;-60
2022/07/27 00:11:01;;;;;;;20.00;12.30;;;;;;;;;;6293651;28;20083;-60
2022/07/27 00:14:01;;;;;;;19.95;12.77;;;;;;;;;;6290735;28;20699;-60
2022/07/27 00:17:02;;;;;;;18.95;11.95;;;;;;;;;;6289714;28;20064;-60
2022/07/27 00:20:03;;;;;;;21.75;12.07;;;;;;;;;;6290485;28;20052;-61
2022/07/27 00:23:04;;;;;;;21.20;12.20;;;;;;;;;;6292187;28;20056;-60
2022/07/27 00:26:04;;;;;;;18.83;12.53;;;;;;;;;;6292170;28;20044;-60
2022/07/27 00:29:05;;;;;;;19.02;12.38;;;;;;;;;;6288930;28;20049;-60
2022/07/27 00:32:06;;;;;;;21.95;12.40;;;;;;;;;;6287643;28;20785;-60
2022/07/27 00:35:08;;;;;;;21.10;13.02;;;;;;;;;;6291382;28;20075;-60
2022/07/27 00:38:08;;;;;;;18.20;11.98;;;;;;;;;;6287429;28;20048;-60
2022/07/27 00:41:10;;;;;;;20.92;13.55;;;;;;;;;;6291127;28;20129;-61
2022/07/27 00:44:11;;;;;;;21.38;13.77;;;;;;;;;;6288790;28;20089;-60
2022/07/27 00:47:11;;;;;;;21.33;12.90;;;;;;;;;;6290381;28;20045;-60
2022/07/27 00:50:12;;;;;;;21.73;13.60;;;;;;;;;;6288929;28;20728;-60
2022/07/27 00:53:13;;;;;;;23.60;13.15;;;;;;;;;;6291736;28;20060;-60
2022/07/27 00:56:15;;;;;;;22.27;12.32;;;;;;;;;;6291911;28;20118;-60
2022/07/27 00:59:15;;;;;;;;;;;;;;;;;;6290250;28;20059;-60
2022/07/27 01:02:16;;;;;;;25.35;12.20;;;;;;;;;;6285822;28;19924;-60
2022/07/27 01:05:17;;;;;;;21.15;11.95;;;;;;;;;;6287204;28;20193;-60
2022/07/27 01:08:17;;;;;;;22.48;12.10;;;;;;;;;;6288858;28;20411;-60
2022/07/27 01:11:18;;;;;;;27.63;13.23;;;;;;;;;;6290614;28;20036;-60
2022/07/27 01:14:19;;;;;;;24.58;13.10;;;;;;;;;;6292937;28;20044;-60
2022/07/27 01:17:20;;;;;;;20.45;12.30;;;;;;;;;;6294947;28;20097;-60
2022/07/27 01:20:20;;;;;;;21.02;11.75;;;;;;;;;;6292168;28;20048;-60
2022/07/27 01:23:24;;;;;;;21.20;10.32;;;;;;;;;;6303694;28;20047;-60
2022/07/27 01:26:25;;;;;;;22.15;11.57;;;;;;;;;;6301038;28;20056;-60
2022/07/27 01:29:26;;;;;;;17.33;10.88;;;;;;;;;;6299694;28;20580;-61
2022/07/27 01:32:27;;;;;;;17.52;10.65;;;;;;;;;;6299356;28;20099;-61
2022/07/27 01:35:28;;;;;;;17.95;10.98;;;;;;;;;;6300794;28;20379;-60
2022/07/27 01:38:29;;;;;;;20.48;11.20;;;;;;;;;;6296628;28;20071;-61
2022/07/27 01:41:29;;;;;;;25.27;13.35;;;;;;;;;;6297680;28;20123;-60
2022/07/27 01:44:30;;;;;;;24.45;13.10;;;;;;;;;;6299443;28;20044;-61
2022/07/27 01:47:30;;;;;;;25.75;14.02;;;;;;;;;;6296916;28;20086;-61
2022/07/27 01:50:31;;;;;;;23.55;12.70;;;;;;;;;;6294936;28;20538;-60
2022/07/27 01:53:32;;;;;;;22.35;12.35;;;;;;;;;;6299532;28;20515;-61
2022/07/27 01:56:32;;;;;;;20.60;12.30;;;;;;;;;;6298390;28;20061;-61
2022/07/27 01:59:33;;;;;;;22.73;13.23;;;;;;;;;;6294781;28;20508;-61
2022/07/27 02:02:33;;;;;;;25.25;14.27;;;;;;;;;;6292498;28;20052;-60
2022/07/27 02:05:36;;;;;;;22.23;12.05;;;;;;;;;;6295408;28;20044;-60
2022/07/27 02:08:36;;;;;;;19.95;11.45;;;;;;;;;;6298688;28;20052;-60
2022/07/27 02:14:56;;;;;;;19.58;11.65;;;;;;;;;;6298217;28;20093;-60
2022/07/27 02:17:57;;;;;;;19.67;10.77;;;;;;;;;;6295394;28;20044;-60
2022/07/27 02:20:57;;;;;;;23.02;13.43;;;;;;;;;;6295762;28;20041;-60
2022/07/27 02:23:58;;;;;;;21.85;12.07;;;;;;;;;;6299044;28;20541;-61
2022/07/27 02:26:58;;;;;;;22.38;12.00;;;;;;;;;;6296194;28;20032;-60
2022/07/27 02:29:59;;;;;;;20.45;11.68;;;;;;;;;;6293441;28;20552;-60
2022/07/27 02:33:00;;;;;;;20.17;11.77;;;;;;;;;;6290939;28;20051;-60
2022/07/27 02:36:01;;;;;;;18.48;10.65;;;;;;;;;;6294633;28;20488;-60
2022/07/27 02:39:01;;;;;;;20.35;11.18;;;;;;;;;;6298296;28;20052;-60
2022/07/27 02:42:02;;;;;;;20.30;11.65;;;;;;;;;;6292249;28;20479;-60
2022/07/27 02:45:03;;;;;;;24.17;12.55;;;;;;;;;;6294377;28;20041;-60
2022/07/27 02:48:04;;;;;;;18.67;11.23;;;;;;;;;;6301168;28;20229;-60
2022/07/27 02:51:04;;;;;;;20.70;11.57;;;;;;;;;;6296456;28;20048;-60
2022/07/27 02:54:05;;;;;;;19.52;10.95;;;;;;;;;;6299779;28;20051;-60
2022/07/27 02:57:05;;;;;;;18.77;11.32;;;;;;;;;;6293154;28;20051;-60
2022/07/27 03:00:10;;;;;;;21.20;11.48;;;;;;;;;;6295987;28;20056;-60
2022/07/27 03:03:11;;;;;;;19.48;11.57;;;;;;;;;;6294479;28;20051;-60
2022/07/27 03:06:12;;;;;;;18.70;10.90;;;;;;;;;;6294084;28;20428;-60
2022/07/27 03:09:13;;;;;;;23.07;11.70;;;;;;;;;;6295686;28;20053;-60
2022/07/27 03:12:14;;;;;;;23.48;12.95;;;;;;;;;;6294716;28;20053;-60
2022/07/27 03:15:14;;;;;;;20.67;12.40;;;;;;;;;;6294178;28;20071;-60
2022/07/27 03:18:15;;;;;;;25.52;14.27;;;;;;;;;;6296602;28;20457;-60
2022/07/27 03:21:15;;;;;;;22.65;13.98;;;;;;;;;;6299379;28;20510;-60
2022/07/27 03:24:16;;;;;;;25.02;13.27;;;;;;;;;;6299960;28;20041;-61
2022/07/27 03:27:16;;;;;;;22.23;13.10;;;;;;;;;;6298005;28;20040;-60
2022/07/27 03:30:17;;;;;;;20.13;11.75;;;;;;;;;;6298365;28;20047;-60
2022/07/27 03:33:18;;;;;;;21.27;13.13;;;;;;;;;;6305352;28;20508;-61
2022/07/27 03:36:18;;;;;;;18.13;11.52;;;;;;;;;;6299742;28;20450;-60
2022/07/27 03:39:19;;;;;;;24.08;13.45;;;;;;;;;;6301003;28;20395;-60
2022/07/27 03:42:19;;;;;;;26.98;15.15;;;;;;;;;;6298606;28;20050;-60
2022/07/27 03:45:20;;;;;;;24.42;14.70;;;;;;;;;;6298538;28;20036;-60
2022/07/27 03:48:20;;;;;;;25.73;14.35;;;;;;;;;;6303510;28;20044;-60
2022/07/27 03:51:21;;;;;;;25.92;14.27;;;;;;;;;;6295852;28;20473;-60
2022/07/27 03:54:22;;;;;;;27.75;14.38;;;;;;;;;;6298155;28;20055;-60
2022/07/27 03:57:23;;;;;;;25.30;13.45;;;;;;;;;;6299726;28;20494;-60
2022/07/27 04:00:25;;;;;;;21.02;13.35;;;;;;;;;;6296095;28;20047;-60
2022/07/27 04:03:25;;;;;;;21.88;14.27;;;;;;;;;;6297770;28;20048;-60
2022/07/27 04:06:26;;;;;;;27.33;14.25;;;;;;;;;;6297284;28;20120;-60
2022/07/27 04:09:27;;;;;;;22.10;14.07;;;;;;;;;;6300976;28;20095;-60
2022/07/27 04:12:28;;;;;;;26.00;14.77;;;;;;;;;;6299447;28;20131;-60
2022/07/27 04:15:28;;;;;;;24.02;13.18;;;;;;;;;;6298942;28;20055;-60
2022/07/27 04:18:29;;;;;;;24.25;14.75;;;;;;;;;;6297355;28;20048;-60
2022/07/27 04:21:30;;;;;;;24.23;14.27;;;;;;;;;;6296589;28;20040;-60
2022/07/27 04:24:31;;;;;;;22.40;14.25;;;;;;;;;;6298454;28;20143;-60
2022/07/27 04:27:31;;;;;;;25.98;14.70;;;;;;;;;;6297132;28;20045;-60
2022/07/27 04:30:32;;;;;;;27.40;15.10;;;;;;;;;;6297773;28;20567;-60
2022/07/27 04:33:32;;;;;;;26.27;15.45;;;;;;;;;;6300782;28;20048;-60
2022/07/27 04:36:33;;;;;;;24.92;14.65;;;;;;;;;;6300028;28;20402;-60
2022/07/27 04:39:33;;;;;;;27.13;15.57;;;;;;;;;;6297069;28;20059;-60
2022/07/27 04:42:34;;;;;;;24.80;14.98;;;;;;;;;;6300208;28;20051;-60
2022/07/27 04:45:34;;;;;;;24.92;14.73;;;;;;;;;;6296220;28;20044;-60
2022/07/27 04:48:35;;;;;;;30.35;17.02;;;;;;;;;;6298660;28;20048;-60
2022/07/27 04:51:36;;;;;;;29.30;15.85;;;;;;;;;;6296664;28;20051;-60
2022/07/27 04:54:36;;;;;;;26.95;15.88;;;;;;;;;;6296655;28;20048;-60
2022/07/27 04:57:40;;;;;;;26.25;14.98;;;;;;;;;;6297856;28;20054;-60
2022/07/27 05:00:42;;;;;;;30.02;16.95;;;;;;;;;;6295256;28;21222;-60
2022/07/27 05:03:42;;;;;;;30.27;16.80;;;;;;;;;;6299010;28;20040;-60
2022/07/27 05:06:43;;;;;;;34.65;18.85;;;;;;;;;;6295469;28;20052;-60
2022/07/27 05:09:43;;;;;;;33.78;18.15;;;;;;;;;;6295555;28;20548;-60
2022/07/27 05:12:44;;;;;;;33.47;19.48;;;;;;;;;;6298375;28;20460;-60
2022/07/27 05:15:45;;;;;;;34.80;18.45;;;;;;;;;;6297469;28;20347;-60
2022/07/27 05:18:45;;;;;;;33.40;18.85;;;;;;;;;;6300362;28;20044;-60
2022/07/27 05:21:46;;;;;;;35.05;18.55;;;;;;;;;;6298076;28;20044;-60
2022/07/27 05:24:46;;;;;;;41.50;19.75;;;;;;;;;;6296124;28;20475;-60
2022/07/27 05:27:47;;;;;;;35.47;19.63;;;;;;;;;;6311703;28;20048;-60
2022/07/27 05:30:48;;;;;;;36.83;20.77;;;;;;;;;;6314161;28;20076;-60
2022/07/27 05:33:48;;;;;;;33.47;20.10;;;;;;;;;;6307667;28;20521;-60
2022/07/27 05:36:49;;;;;;;37.75;20.10;;;;;;;;;;6297151;28;20533;-60
2022/07/27 05:39:49;;;;;;;32.83;19.67;;;;;;;;;;6292422;28;20048;-60
2022/07/27 05:42:50;;;;;;;33.97;19.50;;;;;;;;;;6291715;28;20036;-61
2022/07/27 05:45:50;;;;;;;35.00;20.23;;;;;;;;;;6300864;28;20052;-60
2022/07/27 05:48:51;;;;;;;33.83;19.97;;;;;;;;;;6295870;28;20403;-60
2022/07/27 05:51:51;;;;;;;32.07;19.57;;;;;;;;;;6295475;28;20055;-60
2022/07/27 05:54:52;;;;;;;34.22;19.90;;;;;;;;;;6297292;28;20050;-60
2022/07/27 05:57:53;;;;;;;35.72;19.05;;;;;;;;;;6296862;28;20055;-61
2022/07/27 06:00:55;;;;;;;35.70;20.63;;;;;;;;;;6293607;28;20139;-61
2022/07/27 06:03:55;;;;;;;;;;;;;;;;;;6297786;28;20048;-60
2022/07/27 06:10:15;;;;;;;30.73;17.75;;;;;;;;;;6296897;28;20406;-61
2022/07/27 06:13:16;;;;;;;33.07;19.30;;;;;;;;;;6297179;28;20102;-60
2022/07/27 06:16:16;;;;;;;35.10;20.17;;;;;;;;;;6302055;28;20040;-61
2022/07/27 06:19:17;;;;;;;29.30;18.50;;;;;;;;;;6315009;28;20040;-60
2022/07/27 06:22:18;;;;;;;35.67;19.30;;;;;;;;;;6306162;28;20453;-60
2022/07/27 06:25:20;;;;;;;34.10;20.20;;;;;;;;;;6307051;28;20139;-60
2022/07/27 06:28:21;;;;;;;32.28;19.85;;;;;;;;;;6316309;28;20044;-60
2022/07/27 06:31:21;;;;;;;35.67;20.40;;;;;;;;;;6314144;28;20051;-60
2022/07/27 06:34:22;;;;;;;38.37;21.90;;;;;;;;;;6310324;28;20040;-60
2022/07/27 06:37:22;;;;;;;39.60;22.53;;;;;;;;;;6311609;28;20055;-60
2022/07/27 06:40:23;;;;;;;40.40;22.23;;;;;;;;;;6311187;28;20059;-60
2022/07/27 06:43:27;;;;;;;38.50;22.30;;;;;;;;;;6309772;28;20089;-60
2022/07/27 06:46:27;;;;;;;42.20;23.35;;;;;;;;;;6314275;28;20097;-61
2022/07/27 06:49:28;;;;;;;44.47;23.83;;;;;;;;;;6305740;28;20521;-60
2022/07/27 06:52:28;;;;;;;45.83;25.07;;;;;;;;;;6307203;28;20036;-60
2022/07/27 06:55:29;;;;;;;42.70;23.67;;;;;;;;;;6312934;28;20044;-61
2022/07/27 06:58:31;;;;;;;41.47;22.60;;;;;;;;;;6320999;28;20055;-60
2022/07/27 07:01:31;;;;;;;40.50;23.50;;;;;;;;;;6301657;28;20093;-60
2022/07/27 07:04:32;;;;;;;46.60;25.17;;;;;;;;;;6298009;28;20380;-60
2022/07/27 07:07:33;;;;;;;40.33;22.63;;;;;;;;;;6298149;28;20053;-60
2022/07/27 07:10:33;;;;;;;45.93;23.83;;;;;;;;;;6296308;28;20415;-60
2022/07/27 07:13:34;;;;;;;45.97;25.00;;;;;;;;;;6295766;28;20045;-60
2022/07/27 07:16:34;;;;;;;49.10;25.93;;;;;;;;;;6295343;28;20060;-61
2022/07/27 07:19:35;;;;;;;42.60;24.53;;;;;;;;;;6301599;28;20129;-60
2022/07/27 07:22:36;;;;;;;47.80;25.77;;;;;;;;;;6298806;28;20757;-61
2022/07/27 07:25:37;;;;;;;47.43;26.13;;;;;;;;;;6302804;28;20117;-61
2022/07/27 07:28:38;;;;;;;46.25;26.83;;;;;;;;;;6298406;28;20048;-60
2022/07/27 07:31:38;;;;;;;52.07;27.60;;;;;;;;;;6299044;28;20056;-61
2022/07/27 07:34:39;;;;;;;49.20;27.43;;;;;;;;;;6300577;28;20048;-60
2022/07/27 07:37:40;;;;;;;43.70;26.13;;;;;;;;;;6300559;28;20068;-61
2022/07/27 07:40:40;;;;;;;45.97;26.20;;;;;;;;;;6297615;28;20048;-61
2022/07/27 07:43:41;;;;;;;45.07;26.20;;;;;;;;;;6297738;28;20046;-61
2022/07/27 07:46:41;;;;;;;45.83;26.63;;;;;;;;;;6302086;28;20094;-60
2022/07/27 07:49:42;;;;;;;45.63;27.37;;;;;;;;;;6298734;28;20056;-61
2022/07/27 07:52:42;;;;;;;48.20;27.60;;;;;;;;;;6299980;28;20049;-61
2022/07/27 07:55:43;;;;;;;44.93;27.70;;;;;;;;;;6301456;28;20044;-60
2022/07/27 07:58:44;;;;;;;47.57;28.20;;;;;;;;;;6299299;28;21047;-60
2022/07/27 08:01:44;;;;;;;43.33;26.87;;;;;;;;;;6296376;28;20454;-61
2022/07/27 08:04:45;;;;;;;46.80;27.10;;;;;;;;;;6298533;28;20045;-61
2022/07/27 08:07:46;;;;;;;42.03;26.70;;;;;;;;;;6295178;28;20040;-61
2022/07/27 08:10:47;;;;;;;42.33;26.42;;;;;;;;;;6294176;28;20060;-61
2022/07/27 08:13:48;;;;;;;40.63;26.27;;;;;;;;;;6294568;28;20040;-61
2022/07/27 08:16:48;;;;;;;45.70;26.67;;;;;;;;;;6299493;28;20037;-61
2022/07/27 08:19:49;;;;;;;37.93;24.33;;;;;;;;;;6296483;28;20048;-62
2022/07/27 08:22:49;;;;;;;41.10;24.87;;;;;;;;;;6297228;28;20044;-61
2022/07/27 08:25:50;;;;;;;41.90;25.00;;;;;;;;;;6295706;28;20055;-61
2022/07/27 08:28:50;;;;;;;42.07;25.63;;;;;;;;;;6298657;28;20040;-61
2022/07/27 08:31:51;;;;;;;38.50;24.70;;;;;;;;;;6294622;28;20044;-62
2022/07/27 08:34:51;;;;;;;37.23;25.00;;;;;;;;;;6296825;28;20229;-62
2022/07/27 08:37:52;;;;;;;38.03;25.23;;;;;;;;;;6300542;28;20055;-61
2022/07/27 08:40:54;;;;;;;37.30;24.40;;;;;;;;;;6296064;28;20055;-61
2022/07/27 08:43:55;;;;;;;34.88;24.52;;;;;;;;;;6298955;28;20127;-61
2022/07/27 08:46:59;;;;;;;38.17;24.80;;;;;;;;;;6297634;28;20121;-61
2022/07/27 08:50:00;;;;;;;37.30;25.15;;;;;;;;;;6297013;28;20086;-61
2022/07/27 08:53:03;;;;;;;34.23;23.93;;;;;;;;;;6294960;28;20040;-61
2022/07/27 08:56:03;;;;;;;32.42;23.25;;;;;;;;;;6295986;28;20367;-61
2022/07/27 08:59:04;;;;;;;36.30;24.07;;;;;;;;;;6297630;28;20514;-61
2022/07/27 09:02:10;;;;;;;36.77;24.80;;;;;;;;;;6294659;28;20415;-61
2022/07/27 09:05:11;;;;;;;39.63;25.23;;;;;;;;;;6297584;28;20089;-61
2022/07/27 09:08:14;;;;;;;37.35;25.33;;;;;;;;;;6298705;28;20074;-61
2022/07/27 09:11:14;;;;;;;36.33;23.65;;;;;;;;;;6296183;28;20051;-61
2022/07/27 09:14:15;;;;;;;32.43;23.50;;;;;;;;;;6294874;28;20052;-61
2022/07/27 09:17:24;;;;;;;34.10;23.17;;;;;;;;;;6295464;28;20074;-61
2022/07/27 09:20:24;;;;;;;32.90;23.40;;;;;;;;;;6297194;28;20512;-61
2022/07/27 09:23:26;;;;;;;38.37;24.30;;;;;;;;;;6293225;28;20048;-61
2022/07/27 09:26:28;;;;;;;35.92;23.52;;;;;;;;;;6298267;28;20044;-61
2022/07/27 09:29:34;;;;;;;35.85;23.98;;;;;;;;;;6295681;28;20098;-61
2022/07/27 09:32:35;;;;;;;31.67;22.25;;;;;;;;;;6293443;28;20135;-61
2022/07/27 09:35:35;;;;;;;32.37;21.20;;;;;;;;;;6292206;28;20574;-61
2022/07/27 09:38:36;;;;;;;35.63;24.00;;;;;;;;;;6297473;28;20066;-61
2022/07/27 09:41:45;;;;;;;33.30;22.37;;;;;;;;;;6298190;28;20052;-61
2022/07/27 09:44:46;;;;;;;33.22;22.33;;;;;;;;;;6295460;28;20091;-61
2022/07/27 09:47:47;;;;;;;28.93;21.87;;;;;;;;;;6295813;28;20237;-61
2022/07/27 09:50:57;;;;;;;31.88;21.25;;;;;;;;;;6295185;28;20102;-61
2022/07/27 09:54:05;;;;;;;30.83;20.67;;;;;;;;;;6294058;28;20055;-61
2022/07/27 09:57:06;;;;;;;28.52;19.65;;;;;;;;;;6295984;28;20518;-61
2022/07/27 10:00:12;;;;;;;28.17;21.30;;;;;;;;;;6296806;28;20056;-61
2022/07/27 10:03:13;;;;;;;27.42;19.95;;;;;;;;;;6292149;28;20111;-61
2022/07/27 10:06:14;;;;;;;30.57;20.00;;;;;;;;;;6290089;28;20052;-61
2022/07/27 10:09:17;;;;;;;26.90;19.42;;;;;;;;;;6297509;28;20040;-61
2022/07/27 10:12:18;;;;;;;24.58;19.33;;;;;;;;;;6293644;28;20059;-61
2022/07/27 10:15:18;;;;;;;24.40;18.33;;;;;;;;;;6292077;28;20044;-61
2022/07/27 10:18:41;;;;;;;25.37;18.53;;;;;;;;;;6303684;28;20045;-61
2022/07/27 10:21:46;;;;;;;22.15;16.17;;;;;;;;;;6294974;28;20511;-61
2022/07/27 10:24:57;;;;;;;23.30;18.40;;;;;;;;;;6295555;28;20079;-61
2022/07/27 10:28:06;;;;;;;21.35;17.38;;;;;;;;;;6289393;28;20048;-61
2022/07/27 10:31:17;;;;;;;20.15;16.35;;;;;;;;;;6297335;28;20468;-61
2022/07/27 10:34:38;;;;;;;22.30;17.25;;;;;;;;;;6298467;28;20074;-61
2022/07/27 10:37:39;;;;;;;24.20;17.23;;;;;;;;;;6300309;28;20458;-61
2022/07/27 10:40:40;;;;;;;21.00;14.30;;;;;;;;;;6300334;28;20056;-61
2022/07/27 10:43:40;;;;;;;21.63;15.80;;;;;;;;;;6300316;28;20768;-60
2022/07/27 10:46:47;;;;;;;21.57;14.93;;;;;;;;;;6299935;28;20048;-61
2022/07/27 10:49:47;;;;;;;21.90;16.15;;;;;;;;;;6298850;28;20405;-61
2022/07/27 10:53:06;;;;;;;20.87;15.73;;;;;;;;;;6300054;28;20052;-60
2022/07/27 10:56:08;;;;;;;18.85;15.52;;;;;;;;;;6300119;28;20071;-61
2022/07/27 10:59:08;;;;;;;24.05;16.02;;;;;;;;;;6299419;28;20054;-61
2022/07/27 11:02:11;;;;;;;20.53;14.87;;;;;;;;;;6299965;28;20044;-61
2022/07/27 11:05:12;;;;;;;19.17;13.88;;;;;;;;;;6302133;28;20044;-61
2022/07/27 11:08:12;;;;;;;18.67;12.57;;;;;;;;;;6299207;28;20399;-61
2022/07/27 11:11:16;;;;;;;19.83;13.40;;;;;;;;;;6297776;28;20063;-61
2022/07/27 11:14:16;;;;;;;15.30;13.20;;;;;;;;;;6300799;28;20052;-60
2022/07/27 11:17:28;;;;;;;16.43;13.60;;;;;;;;;;6300207;28;20265;-61
2022/07/27 11:20:29;;;;;;;15.60;13.80;;;;;;;;;;6301003;28;20048;-61
2022/07/27 11:23:29;;;;;;;14.07;11.27;;;;;;;;;;6299975;28;20055;-61
2022/07/27 11:26:38;;;;;;;19.33;12.77;;;;;;;;;;6299033;28;20134;-60
2022/07/27 11:29:38;;;;;;;14.85;11.98;;;;;;;;;;6298158;28;20143;-60
2022/07/27 11:32:39;;;;;;;14.63;11.93;;;;;;;;;;6293933;28;20062;-61
2022/07/27 11:35:56;;;;;;;18.67;12.57;;;;;;;;;;6295811;28;20106;-61
2022/07/27 11:38:56;;;;;;;14.45;12.77;;;;;;;;;;6296680;28;20082;-61
2022/07/27 11:41:59;;;;;;;13.43;10.63;;;;;;;;;;6305409;28;20037;-60
2022/07/27 11:45:00;;;;;;;13.25;11.18;;;;;;;;;;6300744;28;20076;-60
2022/07/27 11:48:01;;;;;;;13.53;10.93;;;;;;;;;;6311004;28;20070;-60
2022/07/27 11:51:01;;;;;;;14.57;11.03;;;;;;;;;;6311454;28;21002;-60
2022/07/27 11:54:17;;;;;;;14.67;11.20;;;;;;;;;;6309950;28;20192;-59
2022/07/27 11:57:19;;;;;;;14.15;10.48;;;;;;;;;;6296401;28;20435;-61
2022/07/27 12:00:20;;;;;;;12.75;11.00;;;;;;;;;;6297008;28;20135;-61
2022/07/27 12:03:22;;;;;;;18.17;12.60;;;;;;;;;;6305304;28;20476;-61
2022/07/27 12:06:23;;;;;;;14.20;12.07;;;;;;;;;;6290483;28;20045;-60
2022/07/27 12:09:25;;;;;;;16.10;12.07;;;;;;;;;;6289609;28;20048;-60
2022/07/27 12:12:27;;;;;;;15.88;11.82;;;;;;;;;;6294814;28;20109;-59
2022/07/27 12:15:28;;;;;;;15.07;11.95;;;;;;;;;;6289866;28;20045;-59
2022/07/27 12:18:42;;;;;;;14.90;12.30;;;;;;;;;;6293280;28;20926;-60
2022/07/27 12:21:50;;;;;;;16.75;12.23;;;;;;;;;;6293647;28;20060;-60
2022/07/27 12:24:51;;;;;;;14.68;12.45;;;;;;;;;;6291333;28;20047;-60
2022/07/27 12:27:52;;;;;;;16.53;12.67;;;;;;;;;;6295114;28;20677;-61
2022/07/27 12:30:53;;;;;;;;;;;;;;;;;;6294399;28;20056;-64
2022/07/27 12:33:56;;;;;;;15.53;12.83;;;;;;;;;;6290716;28;19924;-60
2022/07/27 12:36:56;;;;;;;14.32;12.27;;;;;;;;;;6293360;28;20619;-60
2022/07/27 12:39:58;;;;;;;15.53;12.23;;;;;;;;;;6296712;28;20048;-62
2022/07/27 12:43:04;;;;;;;14.77;12.65;;;;;;;;;;6294631;28;20831;-61
2022/07/27 12:46:12;;;;;;;17.75;13.25;;;;;;;;;;6297406;28;20076;-60
2022/07/27 12:49:16;;;;;;;16.50;12.38;;;;;;;;;;6296100;28;20083;-60
2022/07/27 12:52:17;;;;;;;14.40;12.05;;;;;;;;;;6292258;28;20457;-59
2022/07/27 12:55:19;;;;;;;16.70;12.57;;;;;;;;;;6295004;28;20097;-66
2022/07/27 12:58:20;;;;;;;15.40;11.98;;;;;;;;;;6297530;28;20051;-61
2022/07/27 13:01:21;;;;;;;15.90;12.20;;;;;;;;;;6292410;28;20488;-60
2022/07/27 13:04:21;;;;;;;19.37;13.27;;;;;;;;;;6290079;28;20059;-60
2022/07/27 13:07:22;;;;;;;14.60;11.63;;;;;;;;;;6289783;28;20048;-60
2022/07/27 13:10:22;;;;;;;15.90;12.33;;;;;;;;;;6290309;28;20309;-60
2022/07/27 13:13:23;;;;;;;13.90;12.40;;;;;;;;;;6291454;28;20246;-61
2022/07/27 13:16:23;;;;;;;13.40;10.97;;;;;;;;;;6288493;28;20051;-60
2022/07/27 13:19:24;;;;;;;25.47;11.83;;;;;;;;;;6291356;28;20082;-61
2022/07/27 13:22:24;;;;;;;14.30;12.57;;;;;;;;;;6291676;28;20071;-65
2022/07/27 13:25:25;;;;;;;14.87;12.30;;;;;;;;;;6293468;28;20573;-59
2022/07/27 13:28:26;;;;;;;18.30;14.37;;;;;;;;;;6291223;28;20090;-61
2022/07/27 13:31:27;;;;;;;14.60;12.70;;;;;;;;;;6304812;28;20051;-60
2022/07/27 13:34:27;;;;;;;14.07;12.30;;;;;;;;;;6306914;28;20487;-60
2022/07/27 13:37:28;;;;;;;14.82;11.77;;;;;;;;;;6310936;28;20040;-60
2022/07/27 13:40:29;;;;;;;15.73;11.43;;;;;;;;;;6311748;28;20044;-60
2022/07/27 13:43:30;;;;;;;16.87;11.33;;;;;;;;;;6307743;28;21529;-61
2022/07/27 13:46:30;;;;;;;16.03;12.00;;;;;;;;;;6307867;28;20508;-60
2022/07/27 13:49:31;;;;;;;17.10;11.00;;;;;;;;;;6313013;28;20078;-61
2022/07/27 13:52:31;;;;;;;15.50;11.53;;;;;;;;;;6313335;28;20464;-61
2022/07/27 13:55:32;;;;;;;11.30;9.57;;;;;;;;;;6308838;28;20056;-61
2022/07/27 13:58:33;;;;;;;11.17;9.23;;;;;;;;;;6305218;28;20660;-60
2022/07/27 14:01:36;;;;;;;12.50;9.52;;;;;;;;;;6308035;28;20056;-61
2022/07/27 14:04:36;;;;;;;10.68;8.90;;;;;;;;;;6291484;28;20045;-60
2022/07/27 14:07:37;;;;;;;9.70;8.60;;;;;;;;;;6293991;28;20819;-60
2022/07/27 14:10:41;;;;;;;10.50;8.37;;;;;;;;;;6297907;28;20834;-60
2022/07/27 14:13:42;;;;;;;10.00;8.95;;;;;;;;;;6303688;28;20185;-61
2022/07/27 14:16:43;;;;;;;9.57;8.57;;;;;;;;;;6303186;28;20135;-60
2022/07/27 14:19:44;;;;;;;12.03;10.10;;;;;;;;;;6311392;28;20560;-60
2022/07/27 14:22:44;;;;;;;12.03;9.70;;;;;;;;;;6300615;28;20563;-60
2022/07/27 14:25:45;;;;;;;12.90;9.83;;;;;;;;;;6299672;28;20044;-60
2022/07/27 14:28:46;;;;;;;12.20;9.70;;;;;;;;;;6303010;28;20040;-61
2022/07/27 14:31:47;;;;;;;11.10;9.27;;;;;;;;;;6309270;28;20197;-61
2022/07/27 14:34:47;;;;;;;11.30;9.40;;;;;;;;;;6312414;28;20058;-61
2022/07/27 14:37:48;;;;;;;10.10;8.53;;;;;;;;;;6315070;28;20048;-61
2022/07/27 14:40:49;;;;;;;10.73;8.93;;;;;;;;;;6311829;28;20052;-61
2022/07/27 14:43:50;;;;;;;10.70;8.90;;;;;;;;;;6306532;28;20455;-61
2022/07/27 14:46:50;;;;;;;10.97;8.83;;;;;;;;;;6311248;28;20046;-60
2022/07/27 14:49:51;;;;;;;10.53;9.10;;;;;;;;;;6307849;28;20560;-62
2022/07/27 14:52:52;;;;;;;11.60;8.73;;;;;;;;;;6294628;28;20059;-62
2022/07/27 14:55:53;;;;;;;9.85;8.68;;;;;;;;;;6301474;28;20474;-61
2022/07/27 14:58:53;;;;;;;10.77;8.70;;;;;;;;;;6300355;28;20129;-62
2022/07/27 15:01:54;;;;;;;10.30;8.97;;;;;;;;;;6314638;28;20097;-61
2022/07/27 15:04:54;;;;;;;10.20;7.55;;;;;;;;;;6301739;28;20038;-63
2022/07/27 15:07:55;;;;;;;8.90;7.93;;;;;;;;;;6306390;28;20049;-61
2022/07/27 15:10:56;;;;;;;9.57;8.00;;;;;;;;;;6313888;28;20088;-61
2022/07/27 15:13:57;;;;;;;11.27;8.23;;;;;;;;;;6300803;28;20141;-61
2022/07/27 15:16:58;;;;;;;9.50;7.50;;;;;;;;;;6309442;28;20044;-61
2022/07/27 15:19:58;;;;;;;8.27;6.88;;;;;;;;;;6317538;28;20135;-62
2022/07/27 15:23:01;;;;;;;10.13;7.33;;;;;;;;;;6319812;28;20048;-62
2022/07/27 15:26:02;;;;;;;12.73;7.00;;;;;;;;;;6297712;28;20167;-61
2022/07/27 15:29:03;;;;;;;9.13;6.17;;;;;;;;;;6310908;28;20696;-61
2022/07/27 15:32:04;;;;;;;7.50;5.72;;;;;;;;;;6318017;28;20052;-61
2022/07/27 15:35:05;;;;;;;6.75;5.82;;;;;;;;;;6311984;28;20047;-61
2022/07/27 15:38:05;;;;;;;8.65;5.93;;;;;;;;;;6314566;28;20142;-61
2022/07/27 15:41:06;;;;;;;6.47;5.60;;;;;;;;;;6313173;28;20051;-61
2022/07/27 15:44:07;;;;;;;7.28;4.85;;;;;;;;;;6314425;28;20151;-60
2022/07/27 15:47:08;;;;;;;7.33;5.13;;;;;;;;;;6303253;28;20502;-59
2022/07/27 15:50:09;;;;;;;5.53;4.57;;;;;;;;;;6315773;28;20040;-61
2022/07/27 15:53:12;;;;;;;5.85;4.45;;;;;;;;;;6307098;28;20411;-61
2022/07/27 15:56:13;;;;;;;6.60;4.90;;;;;;;;;;6303106;28;20037;-61
2022/07/27 15:59:14;;;;;;;5.83;4.43;;;;;;;;;;6299422;28;20458;-61
2022/07/27 16:02:14;;;;;;;6.80;4.20;;;;;;;;;;6293265;28;20052;-61
2022/07/27 16:05:15;;;;;;;7.60;5.17;;;;;;;;;;6293805;28;20049;-61
2022/07/27 16:08:17;;;;;;;7.00;4.60;;;;;;;;;;6303833;28;20572;-61
2022/07/27 16:11:18;;;;;;;7.25;4.60;;;;;;;;;;6297665;28;20135;-60
2022/07/27 16:14:18;;;;;;;6.40;4.53;;;;;;;;;;6293947;28;20464;-61
2022/07/27 16:17:19;;;;;;;5.37;4.43;;;;;;;;;;6293773;28;20518;-60
2022/07/27 16:20:19;;;;;;;5.13;4.13;;;;;;;;;;6308025;28;20135;-60
2022/07/27 16:23:21;;;;;;;5.43;3.93;;;;;;;;;;6303859;28;20040;-60
2022/07/27 16:26:22;;;;;;;6.35;4.18;;;;;;;;;;6303558;28;20095;-60
2022/07/27 16:29:23;;;;;;;6.10;3.75;;;;;;;;;;6309576;28;20043;-61
2022/07/27 16:32:23;;;;;;;;;;;;;;;;;;6315107;28;20487;-60
2022/07/27 16:35:24;;;;;;;7.47;3.40;;;;;;;;;;6307140;28;19923;-60
2022/07/27 16:38:25;;;;;;;4.90;3.47;;;;;;;;;;6312053;28;20053;-60
2022/07/27 16:41:25;;;;;;;6.80;3.50;;;;;;;;;;6314832;28;20307;-61
2022/07/27 16:44:26;;;;;;;4.90;3.05;;;;;;;;;;6320408;28;20048;-59
2022/07/27 16:47:26;;;;;;;5.77;3.20;;;;;;;;;;6310346;28;20045;-61
2022/07/27 16:50:27;;;;;;;5.40;3.67;;;;;;;;;;6312559;28;20044;-61
2022/07/27 16:53:28;;;;;;;5.20;3.57;;;;;;;;;;6300354;28;20040;-61
2022/07/27 16:56:29;;;;;;;5.72;3.42;;;;;;;;;;6304553;28;20054;-61
2022/07/27 16:59:29;;;;;;;5.37;3.13;;;;;;;;;;6308212;28;20040;-61
2022/07/27 17:02:30;;;;;;;6.63;3.50;;;;;;;;;;6306886;28;20036;-61
2022/07/27 17:05:31;;;;;;;4.63;3.50;;;;;;;;;;6305694;28;20048;-60
2022/07/27 17:08:32;;;;;;;;;;;;;;;;;;6305940;28;20492;-61
2022/07/27 17:11:34;;;;;;;6.45;3.63;;;;;;;;;;6297443;28;19931;-61
2022/07/27 17:14:34;;;;;;;4.25;3.22;;;;;;;;;;6303508;28;20472;-62
2022/07/27 17:17:35;;;;;;;5.20;3.70;;;;;;;;;;6300388;28;20040;-61
2022/07/27 17:20:36;;;;;;;6.23;3.50;;;;;;;;;;6303812;28;20052;-60
2022/07/27 17:23:37;;;;;;;5.25;3.40;;;;;;;;;;6298658;28;20063;-60
2022/07/27 17:26:37;;;;;;;6.87;3.43;;;;;;;;;;6304060;28;20048;-60
2022/07/27 17:29:39;;;;;;;5.47;3.33;;;;;;;;;;6302865;28;20060;-61
2022/07/27 17:32:39;;;;;;;5.85;3.50;;;;;;;;;;6300547;28;20522;-61
2022/07/27 17:35:40;;;;;;;7.00;3.60;;;;;;;;;;6300964;28;20053;-61
2022/07/27 17:38:45;;;;;;;7.97;3.47;;;;;;;;;;6305046;28;20052;-61
2022/07/27 17:41:46;;;;;;;6.47;4.15;;;;;;;;;;6298692;28;20049;-62
2022/07/27 17:44:46;;;;;;;6.83;4.43;;;;;;;;;;6300595;28;20060;-61
2022/07/27 17:47:47;;;;;;;6.67;4.10;;;;;;;;;;6303980;28;20059;-61
2022/07/27 17:50:48;;;;;;;8.33;4.20;;;;;;;;;;6304572;28;20050;-61